Lerwick, United Kingdom
Current Conditions -  °F | °C
As of 11:50 PM on Saturday 22 Nov 2014 (Local Time) from EGPB Reporting Station
Rain Showers Rain Showers  
Wind Chill: 10°   Ceiling: Unl
Heat Index: 10°   Visibility: 6mi
Dew Point: 10°   Wind: 14mph
Humidity: 100%   Direction: 250°WSW
Pressure: 29.8"   Gusts: NA
Location:  60.15°N, 1.15°W
Report Text: EGPB 222350Z AUTO 25012KT 9999 -SHRA FEW012/// 10/10 Q1009
Loading
Personal Weather Stations






























Interactive Weather Map New forecast layout! Learn more

10-Day Weather Forecast

Advertisements
Track Severe Weather on mobile